createdAt,value
2023-02-19T00:02:15.788Z,6.65
2023-02-19T00:04:44.522Z,5.80
2023-02-19T00:07:14.999Z,6.07
2023-02-19T00:09:45.607Z,4.88
2023-02-19T00:12:14.677Z,5.03
2023-02-19T00:14:44.732Z,4.22
2023-02-19T00:17:13.737Z,5.03
2023-02-19T00:19:43.538Z,5.67
2023-02-19T00:22:12.694Z,5.17
2023-02-19T00:24:41.948Z,6.07
2023-02-19T00:27:12.808Z,8.32
2023-02-19T00:29:41.892Z,7.80
2023-02-19T00:32:11.552Z,6.78
2023-02-19T00:34:40.312Z,8.07
2023-02-19T00:37:09.466Z,7.85
2023-02-19T00:39:38.661Z,8.77
2023-02-19T00:42:07.703Z,8.27
2023-02-19T00:44:38.294Z,6.75
2023-02-19T00:47:07.566Z,7.40
2023-02-19T00:49:36.284Z,6.72
2023-02-19T00:52:05.658Z,6.30
2023-02-19T00:54:34.853Z,5.87
2023-02-19T00:57:03.955Z,4.72
2023-02-19T00:59:33.416Z,5.57
2023-02-19T01:02:03.842Z,5.40
2023-02-19T01:04:32.701Z,5.15
2023-02-19T01:07:03.605Z,5.55
2023-02-19T01:09:32.723Z,5.25
2023-02-19T01:12:02.142Z,5.40
2023-02-19T01:14:31.268Z,4.83
2023-02-19T01:17:00.416Z,5.50
2023-02-19T01:19:30.516Z,5.35
2023-02-19T01:21:59.837Z,5.40
2023-02-19T01:24:29.041Z,5.15
2023-02-19T01:26:58.125Z,5.80
2023-02-19T01:29:27.967Z,6.75
2023-02-19T01:31:56.739Z,5.63
2023-02-19T01:34:30.251Z,5.40
2023-02-19T01:37:00.804Z,5.85
2023-02-19T01:39:29.986Z,4.93
2023-02-19T01:41:59.109Z,6.63
2023-02-19T01:45:05.162Z,5.30
2023-02-19T01:47:33.983Z,5.90
2023-02-19T01:50:03.066Z,5.32
2023-02-19T01:52:35.415Z,5.88
2023-02-19T01:55:06.998Z,5.72
2023-02-19T01:57:39.364Z,5.35
2023-02-19T02:00:12.758Z,5.63
2023-02-19T02:02:42.962Z,6.43
2023-02-19T02:07:59.912Z,6.68
2023-02-19T02:10:29.347Z,6.82
2023-02-19T02:12:59.441Z,4.72
2023-02-19T02:15:34.001Z,5.90
2023-02-19T02:18:07.612Z,5.82
2023-02-19T02:20:52.314Z,6.85
2023-02-19T02:23:31.596Z,6.50
2023-02-19T02:26:03.354Z,5.97
2023-02-19T02:28:58.098Z,6.18
2023-02-19T02:31:32.111Z,6.50
2023-02-19T02:34:05.903Z,7.15
2023-02-19T02:36:37.458Z,5.72
2023-02-19T02:39:08.510Z,5.35
2023-02-19T02:41:43.903Z,5.40
2023-02-19T02:44:13.465Z,6.45
2023-02-19T02:46:44.180Z,5.90
2023-02-19T02:49:18.490Z,5.55
2023-02-19T02:51:49.469Z,6.43
2023-02-19T02:54:43.053Z,4.35
2023-02-19T02:57:16.119Z,4.72
2023-02-19T02:59:52.232Z,4.88
2023-02-19T03:02:27.313Z,4.05
2023-02-19T03:05:19.325Z,5.07
2023-02-19T03:07:51.955Z,5.43
2023-02-19T03:10:24.840Z,4.57
2023-02-19T03:13:12.231Z,5.20
2023-02-19T03:16:15.231Z,3.78
2023-02-19T03:19:05.197Z,4.38
2023-02-19T03:21:38.415Z,5.28
2023-02-19T03:24:29.099Z,3.58
2023-02-19T03:26:58.641Z,3.30
2023-02-19T03:29:32.841Z,3.90
2023-02-19T03:32:08.721Z,4.07
2023-02-19T03:34:40.615Z,3.65
2023-02-19T03:37:12.672Z,5.00
2023-02-19T03:39:45.557Z,4.32
2023-02-19T03:42:22.401Z,4.40
2023-02-19T03:44:59.546Z,3.40
2023-02-19T03:47:31.535Z,3.58
2023-02-19T03:50:07.000Z,4.78
2023-02-19T03:52:40.759Z,4.00
2023-02-19T03:55:12.774Z,4.82
2023-02-19T03:57:48.703Z,4.30
2023-02-19T04:00:20.012Z,4.03
2023-02-19T04:02:53.153Z,5.00
2023-02-19T04:05:27.517Z,4.40
2023-02-19T04:08:00.898Z,4.30
2023-02-19T04:10:35.616Z,4.00
2023-02-19T04:13:12.269Z,4.18
2023-02-19T04:15:43.300Z,3.58
2023-02-19T04:18:16.075Z,4.38
2023-02-19T04:20:48.090Z,4.35
2023-02-19T04:23:20.103Z,3.70
2023-02-19T04:25:52.545Z,4.38
2023-02-19T04:28:21.742Z,4.88
2023-02-19T04:30:51.031Z,4.38
2023-02-19T04:33:20.188Z,3.55
2023-02-19T04:35:50.762Z,5.57
2023-02-19T04:38:20.859Z,3.60
2023-02-19T04:40:51.556Z,4.13
2023-02-19T04:43:21.054Z,4.88
2023-02-19T04:45:50.185Z,3.57
2023-02-19T04:48:19.280Z,4.55
2023-02-19T04:50:48.362Z,4.65
2023-02-19T04:53:18.928Z,3.83
2023-02-19T04:58:17.343Z,4.17
2023-02-19T05:00:46.488Z,4.72
2023-02-19T05:03:15.482Z,4.70
2023-02-19T05:05:44.616Z,5.32
2023-02-19T05:08:13.706Z,5.00
2023-02-19T05:10:43.915Z,5.50
2023-02-19T05:13:14.378Z,5.68
2023-02-19T05:15:43.463Z,5.68
2023-02-19T05:18:12.450Z,5.50
2023-02-19T05:20:41.485Z,5.78
2023-02-19T05:23:10.576Z,5.72
2023-02-19T05:25:39.322Z,5.70
2023-02-19T05:28:18.880Z,6.32
2023-02-19T05:30:49.261Z,5.90
2023-02-19T05:33:20.620Z,5.47
2023-02-19T05:35:51.769Z,5.68
2023-02-19T05:38:21.060Z,7.35
2023-02-19T05:40:49.997Z,5.95
2023-02-19T05:43:20.553Z,6.20
2023-02-19T05:45:49.572Z,6.65
2023-02-19T05:48:18.631Z,5.85
2023-02-19T05:50:49.008Z,6.15
2023-02-19T05:53:18.004Z,6.40
2023-02-19T05:55:46.655Z,6.13
2023-02-19T05:58:16.706Z,6.00
2023-02-19T06:00:47.207Z,5.90
2023-02-19T06:03:16.183Z,5.57
2023-02-19T06:05:45.337Z,6.10
2023-02-19T06:08:15.117Z,6.10
2023-02-19T06:10:43.827Z,5.87
2023-02-19T06:13:12.960Z,6.70
2023-02-19T06:15:43.374Z,6.00
2023-02-19T06:18:13.844Z,6.03
2023-02-19T06:20:43.034Z,6.93
2023-02-19T06:23:12.090Z,5.90
2023-02-19T06:25:40.683Z,6.50
2023-02-19T06:28:10.546Z,6.40
2023-02-19T06:30:39.560Z,6.30
2023-02-19T06:33:08.565Z,6.35
2023-02-19T06:35:39.350Z,5.95
2023-02-19T06:38:08.622Z,6.20
2023-02-19T06:40:37.235Z,7.00
2023-02-19T06:43:06.259Z,6.72
2023-02-19T06:45:35.303Z,6.13
2023-02-19T06:48:04.366Z,7.90
2023-02-19T06:50:33.603Z,6.40
2023-02-19T06:53:04.293Z,6.55
2023-02-19T06:58:01.840Z,6.35
2023-02-19T07:00:31.020Z,6.30
2023-02-19T07:03:00.176Z,7.10
2023-02-19T07:05:29.241Z,7.60
2023-02-19T07:07:58.330Z,6.00
2023-02-19T07:10:28.903Z,6.63
2023-02-19T07:12:57.870Z,7.45
2023-02-19T07:15:27.134Z,6.15
2023-02-19T07:17:56.206Z,7.38
2023-02-19T07:20:25.271Z,6.90
2023-02-19T07:22:54.079Z,8.05
2023-02-19T07:25:23.070Z,6.72
2023-02-19T07:27:54.542Z,6.53
2023-02-19T07:30:23.590Z,7.88
2023-02-19T07:32:52.769Z,5.85
2023-02-19T07:35:21.839Z,6.97
2023-02-19T07:37:50.530Z,7.03
2023-02-19T07:40:19.872Z,6.18
2023-02-19T07:42:48.941Z,7.33
2023-02-19T07:45:20.590Z,6.55
2023-02-19T07:47:49.610Z,6.25
2023-02-19T07:50:18.853Z,6.68
2023-02-19T07:52:47.605Z,7.63
2023-02-19T07:55:16.845Z,7.13
2023-02-19T07:57:46.140Z,7.07
2023-02-19T08:00:16.074Z,6.93
2023-02-19T08:03:00.930Z,6.25
2023-02-19T08:05:30.766Z,7.25
2023-02-19T08:08:00.059Z,5.93
2023-02-19T08:10:46.362Z,6.78
2023-02-19T08:13:26.668Z,8.25
2023-02-19T08:18:38.240Z,7.18
2023-02-19T08:21:07.715Z,8.32
2023-02-19T08:23:37.004Z,7.43
2023-02-19T08:26:07.538Z,9.02
2023-02-19T08:28:36.309Z,7.43
2023-02-19T08:31:10.116Z,7.60
2023-02-19T08:33:41.449Z,6.45
2023-02-19T08:36:12.353Z,5.95
2023-02-19T08:38:42.570Z,7.82
2023-02-19T08:43:41.757Z,6.82
2023-02-19T08:46:11.635Z,8.00
2023-02-19T08:48:42.435Z,7.05
2023-02-19T08:51:13.087Z,7.90
2023-02-19T08:53:44.103Z,5.80
2023-02-19T08:56:14.439Z,6.07
2023-02-19T08:58:43.880Z,6.88
2023-02-19T09:01:15.391Z,6.70
2023-02-19T09:03:47.223Z,7.15
2023-02-19T09:06:22.176Z,7.50
2023-02-19T09:08:51.373Z,6.75
2023-02-19T09:11:20.524Z,8.75
2023-02-19T09:13:49.460Z,8.10
2023-02-19T09:16:18.577Z,7.38
2023-02-19T09:18:49.085Z,6.90
2023-02-19T09:21:18.185Z,6.90
2023-02-19T09:23:47.372Z,6.60
2023-02-19T09:26:16.688Z,6.18
2023-02-19T09:28:45.415Z,6.43
2023-02-19T09:31:16.957Z,8.90
2023-02-19T09:33:46.973Z,7.28
2023-02-19T09:36:18.722Z,6.47
2023-02-19T09:38:48.064Z,6.97
2023-02-19T09:41:20.157Z,7.15
2023-02-19T09:43:48.873Z,7.90
2023-02-19T09:46:26.026Z,6.63
2023-02-19T09:48:57.754Z,6.30
2023-02-19T09:51:29.199Z,6.22
2023-02-19T09:53:59.690Z,6.63
2023-02-19T09:56:29.344Z,6.05
2023-02-19T09:58:59.809Z,5.60
2023-02-19T10:01:32.336Z,6.57
2023-02-19T10:04:01.588Z,6.25
2023-02-19T10:06:36.384Z,6.40
2023-02-19T10:09:18.016Z,6.50
2023-02-19T10:11:47.388Z,5.22
2023-02-19T10:14:19.336Z,4.85
2023-02-19T10:19:17.499Z,5.40
2023-02-19T10:21:48.382Z,5.22
2023-02-19T10:24:21.402Z,5.50
2023-02-19T10:26:51.690Z,5.20
2023-02-19T10:29:22.225Z,5.22
2023-02-19T10:31:52.246Z,6.32
2023-02-19T10:34:23.745Z,5.32
2023-02-19T10:36:54.426Z,5.35
2023-02-19T10:39:40.094Z,5.53
2023-02-19T10:42:16.331Z,5.60
2023-02-19T10:44:47.074Z,5.15
2023-02-19T10:47:21.943Z,5.57
2023-02-19T10:49:51.775Z,4.45
2023-02-19T10:52:27.017Z,4.82
2023-02-19T10:54:58.262Z,5.47
2023-02-19T10:57:33.160Z,5.38
2023-02-19T11:00:04.220Z,5.15
2023-02-19T11:02:33.580Z,5.10
2023-02-19T11:05:16.729Z,5.15
2023-02-19T11:07:48.785Z,4.50
2023-02-19T11:10:28.681Z,4.47
2023-02-19T11:12:59.609Z,5.90
2023-02-19T11:15:30.446Z,5.07
2023-02-19T11:18:03.138Z,5.00
2023-02-19T11:20:32.402Z,5.90
2023-02-19T11:23:12.140Z,3.78
2023-02-19T11:25:46.462Z,4.13
2023-02-19T11:28:25.641Z,4.72
2023-02-19T11:30:54.773Z,4.97
2023-02-19T11:33:31.213Z,4.05
2023-02-19T11:36:32.535Z,4.85
2023-02-19T11:39:19.709Z,4.85
2023-02-19T11:42:13.500Z,4.10
2023-02-19T11:44:51.021Z,4.93
2023-02-19T11:47:56.836Z,4.50
2023-02-19T11:50:29.128Z,3.88
2023-02-19T11:53:08.357Z,4.38
2023-02-19T11:55:49.643Z,4.00
2023-02-19T11:58:59.504Z,3.70
2023-02-19T12:01:58.984Z,3.33
2023-02-19T12:04:52.316Z,3.95
2023-02-19T12:07:30.369Z,3.88
2023-02-19T12:10:06.318Z,3.92
2023-02-19T12:12:45.870Z,3.45
2023-02-19T12:15:40.967Z,3.90
2023-02-19T12:18:45.817Z,3.65
2023-02-19T12:21:24.178Z,3.88
2023-02-19T12:24:22.138Z,2.72
2023-02-19T12:27:01.093Z,3.30
2023-02-19T12:29:44.479Z,4.13
2023-02-19T12:32:46.146Z,3.45
2023-02-19T12:35:41.822Z,2.80
2023-02-19T12:38:20.326Z,4.15
2023-02-19T12:40:59.586Z,3.03
2023-02-19T12:43:28.710Z,2.70
2023-02-19T12:46:01.849Z,4.00
2023-02-19T12:48:33.405Z,2.80
2023-02-19T12:51:07.070Z,3.55
2023-02-19T12:53:41.590Z,4.07
2023-02-19T12:56:15.492Z,4.07
2023-02-19T12:58:46.695Z,3.55
2023-02-19T13:01:21.388Z,3.22
2023-02-19T13:03:54.375Z,3.15
2023-02-19T13:06:33.500Z,3.20
2023-02-19T13:09:07.099Z,3.45
2023-02-19T13:11:38.987Z,3.28
2023-02-19T13:14:13.931Z,3.65
2023-02-19T13:16:48.700Z,4.25
2023-02-19T13:19:17.811Z,3.72
2023-02-19T13:22:09.785Z,3.22
2023-02-19T13:24:41.809Z,3.25
2023-02-19T13:27:28.354Z,3.40
2023-02-19T13:30:17.062Z,4.07
2023-02-19T13:32:57.072Z,3.22
2023-02-19T13:35:31.082Z,3.90
2023-02-19T13:38:03.290Z,5.03
2023-02-19T13:40:35.064Z,4.38
2023-02-19T13:43:06.173Z,3.38
2023-02-19T13:45:38.519Z,3.45
2023-02-19T13:48:28.572Z,3.40
2023-02-19T13:51:46.046Z,4.18
2023-02-19T13:54:24.557Z,3.92
2023-02-19T13:57:26.628Z,4.57
2023-02-19T13:59:56.604Z,3.88
2023-02-19T14:02:30.746Z,4.38
2023-02-19T14:05:03.900Z,3.50
2023-02-19T14:07:54.139Z,3.45
2023-02-19T14:11:02.524Z,4.75
2023-02-19T14:13:59.736Z,3.90
2023-02-19T14:16:35.127Z,4.20
2023-02-19T14:19:04.332Z,3.85
2023-02-19T14:21:39.640Z,3.85
2023-02-19T14:24:13.047Z,3.80
2023-02-19T14:26:42.613Z,3.58
2023-02-19T14:29:15.570Z,3.33
2023-02-19T14:31:46.287Z,3.50
2023-02-19T14:34:19.667Z,3.58
2023-02-19T14:36:51.982Z,3.63
2023-02-19T14:39:24.439Z,4.07
2023-02-19T14:41:54.868Z,3.58
2023-02-19T14:44:26.403Z,3.60
2023-02-19T14:46:59.923Z,4.57
2023-02-19T14:49:32.196Z,3.47
2023-02-19T14:52:05.636Z,3.67
2023-02-19T14:54:40.754Z,3.30
2023-02-19T14:57:15.094Z,3.10
2023-02-19T14:59:53.702Z,3.47
2023-02-19T15:02:24.235Z,4.00
2023-02-19T15:04:53.581Z,3.28
2023-02-19T15:07:26.737Z,3.75
2023-02-19T15:09:58.722Z,3.67
2023-02-19T15:12:30.556Z,3.40
2023-02-19T15:15:03.248Z,3.40
2023-02-19T15:17:33.843Z,3.72
2023-02-19T15:20:05.347Z,3.63
2023-02-19T15:22:35.500Z,3.97
2023-02-19T15:25:05.732Z,3.70
2023-02-19T15:30:05.318Z,3.95
2023-02-19T15:32:34.489Z,4.13
2023-02-19T15:35:06.623Z,4.10
2023-02-19T15:37:37.339Z,4.47
2023-02-19T15:40:09.547Z,3.72
2023-02-19T15:42:39.608Z,4.45
2023-02-19T15:45:12.677Z,5.30
2023-02-19T15:47:44.983Z,3.83
2023-02-19T15:50:15.508Z,3.67
2023-02-19T15:52:49.569Z,3.30
2023-02-19T15:55:34.473Z,3.65
2023-02-19T15:58:08.761Z,4.18
2023-02-19T16:00:41.527Z,4.30
2023-02-19T16:03:18.054Z,3.60
2023-02-19T16:05:47.449Z,3.90
2023-02-19T16:08:23.835Z,3.70
2023-02-19T16:10:57.211Z,4.22
2023-02-19T16:13:27.482Z,4.18
2023-02-19T16:18:26.905Z,4.35
2023-02-19T16:20:56.136Z,4.72
2023-02-19T16:23:27.548Z,3.72
2023-02-19T16:26:01.264Z,3.92
2023-02-19T16:28:34.638Z,5.32
2023-02-19T16:31:05.816Z,4.10
2023-02-19T16:33:38.421Z,4.63
2023-02-19T16:36:36.234Z,4.13
2023-02-19T16:39:22.100Z,3.97
2023-02-19T16:42:18.470Z,3.80
2023-02-19T16:44:48.839Z,3.92
2023-02-19T16:49:52.709Z,4.45
2023-02-19T16:52:21.812Z,5.47
2023-02-19T16:54:52.499Z,4.00
2023-02-19T16:57:21.909Z,4.70
2023-02-19T16:59:50.987Z,4.53
2023-02-19T17:02:23.057Z,5.00
2023-02-19T17:04:55.267Z,4.13
2023-02-19T17:07:26.118Z,4.57
2023-02-19T17:09:56.747Z,4.88
2023-02-19T17:12:27.133Z,4.55
2023-02-19T17:14:57.245Z,5.07
2023-02-19T17:17:26.306Z,4.37
2023-02-19T17:19:56.115Z,3.38
2023-02-19T17:24:55.228Z,4.38
2023-02-19T17:29:54.533Z,3.42
2023-02-19T17:32:25.177Z,4.93
2023-02-19T17:34:54.364Z,4.00
2023-02-19T17:37:23.393Z,4.63
2023-02-19T17:39:52.457Z,4.63
2023-02-19T17:42:21.630Z,4.85
2023-02-19T17:44:53.460Z,5.13
2023-02-19T17:47:23.203Z,5.30
2023-02-19T17:49:51.854Z,5.67
2023-02-19T17:52:20.838Z,5.88
2023-02-19T17:54:49.857Z,5.78
2023-02-19T17:57:18.882Z,6.20
2023-02-19T17:59:47.936Z,5.95
2023-02-19T18:02:18.365Z,6.90
2023-02-19T18:04:47.009Z,7.05
2023-02-19T18:07:16.320Z,6.25
2023-02-19T18:09:45.499Z,5.88
2023-02-19T18:12:14.589Z,6.20
2023-02-19T18:14:43.716Z,4.90
2023-02-19T18:17:12.838Z,6.18
2023-02-19T18:19:45.178Z,6.18
2023-02-19T18:22:14.323Z,8.57
2023-02-19T18:24:47.672Z,5.70
2023-02-19T18:27:18.680Z,5.68
2023-02-19T18:29:51.166Z,5.47
2023-02-19T18:32:20.218Z,5.07
2023-02-19T18:34:51.738Z,5.30
2023-02-19T18:37:21.434Z,5.60
2023-02-19T18:39:50.529Z,5.45
2023-02-19T18:42:19.757Z,4.93
2023-02-19T18:44:49.680Z,5.80
2023-02-19T18:47:19.287Z,5.68
2023-02-19T18:49:48.607Z,4.72
2023-02-19T18:52:20.926Z,6.13
2023-02-19T18:54:51.733Z,5.75
2023-02-19T18:57:21.363Z,5.90
2023-02-19T18:59:50.763Z,6.35
2023-02-19T19:02:20.390Z,5.30
2023-02-19T19:04:51.045Z,5.43
2023-02-19T19:07:22.238Z,5.13
2023-02-19T19:09:51.504Z,5.55
2023-02-19T19:12:20.792Z,5.93
2023-02-19T19:14:49.922Z,6.23
2023-02-19T19:17:19.091Z,6.90
2023-02-19T19:19:47.930Z,6.88
2023-02-19T19:22:22.316Z,6.95
2023-02-19T19:24:53.030Z,7.85
2023-02-19T19:27:22.381Z,6.70
2023-02-19T19:29:51.693Z,5.13
2023-02-19T19:32:20.883Z,5.10
2023-02-19T19:34:49.992Z,6.18
2023-02-19T19:37:19.189Z,6.23
2023-02-19T19:39:48.838Z,5.87
2023-02-19T19:42:19.427Z,5.83
2023-02-19T19:44:48.668Z,5.97
2023-02-19T19:47:17.737Z,5.85
2023-02-19T19:49:47.425Z,4.90
2023-02-19T19:52:16.689Z,5.80
2023-02-19T19:54:45.790Z,5.68
2023-02-19T19:57:14.966Z,5.70
2023-02-19T19:59:45.513Z,5.20
2023-02-19T20:02:14.636Z,6.70
2023-02-19T20:04:44.776Z,4.95
2023-02-19T20:07:13.860Z,6.05
2023-02-19T20:09:42.954Z,4.65
2023-02-19T20:12:12.867Z,5.63
2023-02-19T20:14:47.097Z,5.40
2023-02-19T20:17:16.694Z,5.82
2023-02-19T20:19:47.330Z,5.70
2023-02-19T20:22:16.792Z,5.25
2023-02-19T20:24:45.926Z,5.50
2023-02-19T20:27:15.019Z,5.28
2023-02-19T20:29:44.886Z,5.57
2023-02-19T20:32:18.687Z,5.38
2023-02-19T20:34:47.727Z,5.63
2023-02-19T20:37:16.892Z,5.30
2023-02-19T20:39:46.063Z,4.93
2023-02-19T20:42:17.058Z,4.40
2023-02-19T20:44:46.425Z,4.20
2023-02-19T20:47:17.018Z,4.70
2023-02-19T20:52:16.280Z,5.30
2023-02-19T20:54:45.738Z,5.20
2023-02-19T20:57:15.737Z,4.87
2023-02-19T20:59:45.033Z,4.93
2023-02-19T21:02:19.260Z,6.47
2023-02-19T21:04:48.452Z,5.32
2023-02-19T21:07:17.899Z,4.27
2023-02-19T21:09:47.027Z,4.90
2023-02-19T21:12:16.205Z,4.55
2023-02-19T21:14:45.509Z,4.87
2023-02-19T21:17:16.460Z,4.32
2023-02-19T21:19:45.289Z,4.47
2023-02-19T21:22:15.551Z,5.35
2023-02-19T21:24:44.844Z,8.43
2023-02-19T21:27:14.132Z,4.63
2023-02-19T21:29:43.338Z,4.90
2023-02-19T21:32:12.776Z,4.50
2023-02-19T21:34:44.081Z,4.38
2023-02-19T21:37:13.144Z,5.28
2023-02-19T21:39:42.914Z,4.22
2023-02-19T21:42:12.065Z,4.72
2023-02-19T21:44:43.039Z,5.00
2023-02-19T21:47:12.764Z,5.07
2023-02-19T21:49:43.719Z,4.32
2023-02-19T21:52:12.767Z,4.15
2023-02-19T21:54:41.772Z,4.00
2023-02-19T21:57:10.798Z,4.47
2023-02-19T21:59:39.976Z,3.80
2023-02-19T22:02:09.995Z,4.10
2023-02-19T22:04:38.683Z,4.18
2023-02-19T22:07:09.133Z,4.55
2023-02-19T22:09:38.508Z,4.82
2023-02-19T22:12:10.360Z,4.65
2023-02-19T22:14:39.459Z,4.53
2023-02-19T22:17:08.532Z,4.25
2023-02-19T22:19:37.234Z,5.63
2023-02-19T22:22:06.568Z,4.72
2023-02-19T22:24:37.328Z,4.97
2023-02-19T22:27:06.488Z,5.05
2023-02-19T22:29:35.605Z,5.55
2023-02-19T22:32:04.742Z,4.47
2023-02-19T22:34:33.456Z,5.18
2023-02-19T22:37:02.427Z,5.05
2023-02-19T22:39:31.486Z,4.40
2023-02-19T22:42:02.221Z,4.57
2023-02-19T22:44:31.277Z,5.55
2023-02-19T22:47:00.382Z,5.22
2023-02-19T22:49:29.087Z,5.47
2023-02-19T22:52:00.372Z,7.03
2023-02-19T22:54:29.396Z,6.20
2023-02-19T22:56:58.849Z,5.15
2023-02-19T22:59:29.394Z,5.93
2023-02-19T23:04:27.280Z,5.13
2023-02-19T23:06:56.586Z,5.80
2023-02-19T23:09:27.665Z,5.53
2023-02-19T23:12:03.364Z,5.20
2023-02-19T23:14:34.189Z,4.95
2023-02-19T23:17:03.486Z,5.22
2023-02-19T23:19:32.569Z,5.28
2023-02-19T23:22:01.825Z,5.60
2023-02-19T23:24:31.121Z,6.30
2023-02-19T23:27:00.861Z,4.85
2023-02-19T23:29:30.998Z,5.00
2023-02-19T23:32:01.581Z,4.60
2023-02-19T23:36:59.957Z,4.75
2023-02-19T23:39:29.335Z,4.68
2023-02-19T23:41:59.355Z,5.03
2023-02-19T23:44:28.658Z,4.95
2023-02-19T23:46:57.351Z,5.10
2023-02-19T23:49:27.956Z,3.53
2023-02-19T23:51:57.286Z,5.43
2023-02-19T23:54:26.448Z,4.38
2023-02-19T23:56:57.073Z,4.80
2023-02-19T23:59:26.176Z,4.75
